Time;durP1;ratioP1;P1;durP2;ratioP2;P2;SDS_P1;SDS_P2;PMS_P1;PMS_P2;Temp;Humidity;BMP_temperature;BMP_pressure;BME280_temperature;BME280_humidity;BME280_pressure;Samples;Min_cycle;Max_cycle;Signal;HPM_P1;HPM_P2
2022/03/18 00:00:17;;;;;;;10.23;6.25;;;8.20;99.90;;;;;;5030786;28;20162;-75
2022/03/18 00:02:43;;;;;;;7.90;6.20;;;8.20;99.90;;;;;;5030952;28;20170;-75
2022/03/18 00:05:09;;;;;;;7.20;6.40;;;8.20;99.90;;;;;;5031087;28;20193;-75
2022/03/18 00:07:35;;;;;;;9.03;6.23;;;8.20;99.90;;;;;;5032297;28;20538;-75
2022/03/18 00:10:01;;;;;;;7.97;6.10;;;8.10;99.90;;;;;;5030444;28;20573;-75
2022/03/18 00:12:27;;;;;;;7.25;5.95;;;8.10;99.90;;;;;;5032377;28;20585;-76
2022/03/18 00:14:53;;;;;;;6.35;5.75;;;8.10;99.90;;;;;;5031307;28;20262;-77
2022/03/18 00:17:18;;;;;;;9.10;6.70;;;8.10;99.90;;;;;;5032551;28;20170;-77
2022/03/18 00:19:44;;;;;;;7.33;5.80;;;8.00;99.90;;;;;;5036565;28;20166;-77
2022/03/18 00:22:12;;;;;;;7.67;6.10;;;8.00;99.90;;;;;;5014630;28;20596;-76
2022/03/18 00:24:38;;;;;;;11.27;7.00;;;8.00;99.90;;;;;;5031839;28;20640;-77
2022/03/18 00:27:04;;;;;;;9.90;6.53;;;8.00;99.90;;;;;;5032414;28;20215;-77
2022/03/18 00:29:33;;;;;;;9.30;6.95;;;8.00;99.90;;;;;;5032509;28;20261;-77
2022/03/18 00:31:59;;;;;;;8.03;5.93;;;8.00;99.90;;;;;;5031934;28;20637;-77
2022/03/18 00:34:25;;;;;;;7.80;6.47;;;7.90;99.90;;;;;;5030756;28;20997;-77
2022/03/18 00:36:52;;;;;;;10.23;6.63;;;7.90;99.90;;;;;;5032078;28;20172;-77
2022/03/18 00:39:18;;;;;;;12.55;6.72;;;7.90;99.90;;;;;;5032088;28;20174;-76
2022/03/18 00:41:44;;;;;;;9.95;6.78;;;7.90;99.90;;;;;;5031363;28;20166;-77
2022/03/18 00:44:10;;;;;;;9.33;6.70;;;7.80;99.90;;;;;;5031530;28;20231;-77
2022/03/18 00:46:36;;;;;;;7.03;5.60;;;7.80;99.90;;;;;;5030639;28;20615;-77
2022/03/18 00:52:05;;;;;;;8.98;5.63;;;7.80;99.90;;;;;;5016594;28;20165;-77
2022/03/18 00:54:42;;;;;;;6.20;5.45;;;7.80;99.90;;;;;;5033155;28;20224;-77
2022/03/18 00:57:09;;;;;;;9.35;6.38;;;7.80;99.90;;;;;;5036814;28;20180;-76
2022/03/18 00:59:35;;;;;;;9.27;6.82;;;7.70;99.90;;;;;;5031075;28;20181;-77
2022/03/18 01:02:02;;;;;;;10.00;7.50;;;7.70;99.90;;;;;;5040327;28;20196;-77
2022/03/18 01:04:28;;;;;;;11.88;6.65;;;7.60;99.90;;;;;;5039519;28;20193;-77
2022/03/18 01:06:55;;;;;;;12.02;7.60;;;7.60;99.90;;;;;;5033960;28;20257;-76
2022/03/18 01:09:22;;;;;;;8.60;7.45;;;7.60;99.90;;;;;;5020045;28;20185;-76
2022/03/18 01:11:50;;;;;;;9.60;8.00;;;7.60;99.90;;;;;;5030707;28;20170;-76
2022/03/18 01:14:17;;;;;;;11.60;7.35;;;7.50;99.90;;;;;;5044146;28;20275;-75
2022/03/18 01:16:43;;;;;;;8.27;7.47;;;7.50;99.90;;;;;;5040764;28;20169;-75
2022/03/18 01:19:09;;;;;;;9.73;7.10;;;7.50;99.90;;;;;;5030093;28;20177;-77
2022/03/18 01:21:35;;;;;;;8.27;7.17;;;7.40;99.90;;;;;;5042523;28;20177;-77
2022/03/18 01:24:01;;;;;;;10.73;8.57;;;7.40;99.90;;;;;;5042123;28;20641;-77
2022/03/18 01:26:28;;;;;;;12.98;8.18;;;7.40;99.90;;;;;;5057577;28;20184;-77
2022/03/18 01:28:54;;;;;;;10.13;8.38;;;7.40;99.90;;;;;;5059421;28;20705;-77
2022/03/18 01:31:20;;;;;;;10.07;8.60;;;7.30;99.90;;;;;;5044978;28;20222;-77
2022/03/18 01:33:49;;;;;;;11.52;7.70;;;7.30;99.90;;;;;;5062020;28;20682;-76
2022/03/18 01:36:14;;;;;;;10.15;9.10;;;7.20;99.90;;;;;;5055671;28;20165;-77
2022/03/18 01:38:41;;;;;;;9.80;8.73;;;7.20;99.90;;;;;;5037754;28;20244;-77
2022/03/18 01:41:07;;;;;;;9.98;8.15;;;7.20;99.90;;;;;;5055028;28;20624;-76
2022/03/18 01:43:38;;;;;;;8.30;7.50;;;7.20;99.90;;;;;;5037823;28;20219;-76
2022/03/18 01:46:03;;;;;;;11.43;7.55;;;7.10;99.90;;;;;;5054777;28;20161;-76
2022/03/18 01:48:29;;;;;;;9.87;8.00;;;7.10;99.90;;;;;;5054836;28;20179;-76
2022/03/18 01:50:55;;;;;;;8.87;7.57;;;7.10;99.90;;;;;;5036362;28;20169;-77
2022/03/18 01:53:20;;;;;;;8.43;7.33;;;7.10;99.90;;;;;;5036639;28;20173;-77
2022/03/18 01:55:49;;;;;;;9.93;7.70;;;7.00;99.90;;;;;;5054229;28;20187;-77
2022/03/18 01:58:15;;;;;;;8.23;7.30;;;7.00;99.90;;;;;;5019970;28;20180;-77
2022/03/18 02:00:40;;;;;;;9.53;7.73;;;7.00;99.90;;;;;;5054048;28;20195;-77
2022/03/18 02:03:06;;;;;;;12.30;7.27;;;7.00;99.90;;;;;;5052835;28;20189;-76
2022/03/18 02:05:33;;;;;;;10.23;7.83;;;7.00;99.90;;;;;;5053942;28;20173;-77
2022/03/18 02:08:01;;;;;;;10.73;8.10;;;6.90;99.90;;;;;;5036266;28;20192;-76
2022/03/18 02:10:27;;;;;;;10.40;7.78;;;6.90;99.90;;;;;;5058380;28;20165;-77
2022/03/18 02:12:53;;;;;;;12.88;6.90;;;6.90;99.90;;;;;;5019508;28;20168;-77
2022/03/18 02:15:18;;;;;;;7.10;6.40;;;6.90;99.90;;;;;;5019694;28;20185;-77
2022/03/18 02:17:44;;;;;;;8.02;7.22;;;6.90;99.90;;;;;;5019805;28;20229;-77
2022/03/18 02:20:10;;;;;;;14.87;8.00;;;6.80;99.90;;;;;;5035847;28;20200;-77
2022/03/18 02:22:42;;;;;;;9.20;7.50;;;6.80;99.90;;;;;;5054069;28;20157;-76
2022/03/18 02:25:09;;;;;;;9.70;6.47;;;6.80;99.90;;;;;;5053990;28;20618;-76
2022/03/18 02:27:39;;;;;;;8.45;7.45;;;6.80;99.90;;;;;;5054467;28;20529;-76
2022/03/18 02:30:07;;;;;;;7.25;6.55;;;6.70;99.90;;;;;;5054168;28;20169;-76
2022/03/18 02:32:34;;;;;;;9.20;6.72;;;6.70;99.90;;;;;;5054223;28;20173;-77
2022/03/18 02:35:01;;;;;;;7.55;6.05;;;6.70;99.90;;;;;;5035907;28;20246;-77
2022/03/18 02:37:27;;;;;;;8.13;6.38;;;6.60;99.90;;;;;;5053844;28;20260;-77
2022/03/18 02:39:54;;;;;;;8.02;6.88;;;6.60;99.90;;;;;;5034509;28;20169;-77
2022/03/18 02:42:20;;;;;;;9.27;6.60;;;6.60;99.90;;;;;;5053656;28;20196;-77
2022/03/18 02:44:46;;;;;;;13.93;7.23;;;6.60;99.90;;;;;;5018962;28;20243;-77
2022/03/18 02:47:12;;;;;;;13.97;8.37;;;6.60;99.90;;;;;;5024406;28;21176;-77
2022/03/18 02:49:37;;;;;;;8.37;7.60;;;6.50;99.90;;;;;;5035653;28;20239;-76
2022/03/18 02:52:03;;;;;;;13.90;8.80;;;6.50;99.90;;;;;;5035555;28;20646;-76
2022/03/18 02:54:29;;;;;;;8.57;7.75;;;6.50;99.90;;;;;;5035365;28;20201;-76
2022/03/18 02:56:55;;;;;;;11.30;7.70;;;6.50;99.90;;;;;;5053276;28;20560;-76
2022/03/18 02:59:20;;;;;;;11.00;8.17;;;6.50;99.90;;;;;;5035392;28;20175;-77
2022/03/18 03:01:46;;;;;;;11.20;7.80;;;6.40;99.90;;;;;;5034985;28;20169;-77
2022/03/18 03:04:13;;;;;;;11.13;7.78;;;6.40;99.90;;;;;;5052931;28;20197;-77
2022/03/18 03:09:23;;;;;;;10.27;8.98;;;6.40;99.90;;;;;;5052724;28;20161;-76
2022/03/18 03:11:49;;;;;;;13.13;8.67;;;6.40;99.90;;;;;;5035036;28;20659;-77
2022/03/18 03:14:14;;;;;;;9.77;8.23;;;6.40;99.90;;;;;;5052928;28;20603;-76
2022/03/18 03:16:40;;;;;;;10.30;7.70;;;6.30;99.90;;;;;;5035111;28;20668;-76
2022/03/18 03:19:06;;;;;;;11.55;8.48;;;6.30;99.90;;;;;;5034686;28;20208;-76
2022/03/18 03:21:34;;;;;;;11.33;7.50;;;6.30;99.90;;;;;;5052610;28;20228;-76
2022/03/18 03:24:01;;;;;;;10.40;7.95;;;6.30;99.90;;;;;;5057400;28;20619;-77
2022/03/18 03:26:27;;;;;;;13.95;8.55;;;6.30;99.90;;;;;;5053071;28;20192;-76
2022/03/18 03:28:53;;;;;;;9.65;7.75;;;6.30;99.90;;;;;;5035177;28;20633;-76
2022/03/18 03:31:19;;;;;;;10.80;7.90;;;6.30;99.90;;;;;;5052468;28;20205;-77
2022/03/18 03:33:45;;;;;;;9.95;7.95;;;6.20;99.90;;;;;;5052525;28;20249;-76
2022/03/18 03:36:11;;;;;;;11.35;8.40;;;6.20;99.90;;;;;;5035328;28;20181;-76
2022/03/18 03:38:37;;;;;;;7.70;6.70;;;6.20;99.90;;;;;;5052518;28;20219;-76
2022/03/18 03:41:03;;;;;;;13.00;6.77;;;6.20;99.90;;;;;;5034377;28;20185;-77
2022/03/18 03:43:29;;;;;;;8.70;6.97;;;6.20;99.90;;;;;;5034229;28;20724;-76
2022/03/18 03:45:55;;;;;;;10.50;7.30;;;6.20;99.90;;;;;;5037487;28;20174;-76
2022/03/18 03:48:20;;;;;;;8.60;6.17;;;6.10;99.90;;;;;;5027759;28;20191;-76
2022/03/18 03:50:46;;;;;;;7.53;6.73;;;6.10;99.90;;;;;;5012139;28;20202;-76
2022/03/18 03:53:12;;;;;;;12.67;6.70;;;6.10;99.90;;;;;;5012392;28;20205;-76
2022/03/18 03:55:39;;;;;;;8.27;7.13;;;6.10;99.90;;;;;;5012696;28;20242;-77
2022/03/18 03:58:06;;;;;;;10.48;6.82;;;6.10;99.90;;;;;;5012626;28;20170;-76
2022/03/18 04:00:32;;;;;;;10.93;7.55;;;6.00;99.90;;;;;;5014983;28;20174;-77
2022/03/18 04:02:58;;;;;;;7.72;6.18;;;6.00;99.90;;;;;;5013812;28;20180;-76
2022/03/18 04:05:24;;;;;;;10.17;6.90;;;6.00;99.90;;;;;;5012798;28;20182;-75
2022/03/18 04:07:50;;;;;;;8.45;6.45;;;6.00;99.90;;;;;;5013561;28;20167;-76
2022/03/18 04:10:16;;;;;;;9.57;7.70;;;6.00;99.90;;;;;;5010736;28;20182;-77
2022/03/18 04:12:43;;;;;;;9.70;6.20;;;6.00;99.90;;;;;;5012158;28;20175;-77
2022/03/18 04:15:09;;;;;;;9.23;7.03;;;6.00;99.90;;;;;;5012169;28;20194;-77
2022/03/18 04:17:46;;;;;;;8.45;6.95;;;6.00;99.90;;;;;;5012188;28;20159;-76
2022/03/18 04:20:14;;;;;;;10.20;7.50;;;6.00;99.90;;;;;;5011684;28;20169;-77
2022/03/18 04:22:41;;;;;;;7.43;6.07;;;6.00;99.90;;;;;;5012375;28;20515;-77
2022/03/18 04:25:08;;;;;;;13.30;7.05;;;5.90;99.90;;;;;;5010870;28;20289;-76
2022/03/18 04:27:35;;;;;;;7.97;5.90;;;5.90;99.90;;;;;;5011287;28;20523;-77
2022/03/18 04:30:00;;;;;;;7.47;5.97;;;5.90;99.90;;;;;;5010592;28;20166;-77
2022/03/18 04:32:26;;;;;;;12.20;6.90;;;5.90;99.90;;;;;;5011012;28;20201;-77
2022/03/18 04:34:52;;;;;;;9.10;6.90;;;5.90;99.90;;;;;;5011936;28;20601;-76
2022/03/18 04:37:18;;;;;;;8.03;6.70;;;5.90;99.90;;;;;;5011742;28;20170;-77
2022/03/18 04:39:44;;;;;;;6.50;5.90;;;5.80;99.90;;;;;;5013387;28;21124;-77
2022/03/18 04:42:10;;;;;;;8.97;6.40;;;5.80;99.90;;;;;;5010779;28;20627;-76
2022/03/18 04:44:35;;;;;;;9.43;7.40;;;5.90;99.90;;;;;;5011820;28;20644;-77
2022/03/18 04:47:01;;;;;;;9.00;6.10;;;5.80;99.90;;;;;;5052190;23;20868;-80
2022/03/18 04:49:27;;;;;;;10.97;6.20;;;5.80;99.90;;;;;;5049705;28;20195;-80
2022/03/18 04:51:53;;;;;;;7.90;5.77;;;5.80;99.90;;;;;;5050045;28;20169;-80
2022/03/18 04:54:19;;;;;;;8.15;6.32;;;5.80;99.90;;;;;;5066660;28;20618;-80
2022/03/18 04:59:41;;;;;;;8.80;6.68;;;5.70;99.90;;;;;;5039005;28;20181;-80
2022/03/18 05:02:10;;;;;;;10.98;5.45;;;5.70;99.90;;;;;;5051357;28;20173;-80
2022/03/18 05:04:37;;;;;;;5.95;5.35;;;5.70;99.90;;;;;;5053660;28;20672;-80
2022/03/18 05:07:04;;;;;;;10.73;5.53;;;5.70;99.90;;;;;;5053715;28;20188;-80
2022/03/18 05:09:29;;;;;;;10.50;6.32;;;5.60;99.90;;;;;;5055112;28;20187;-79
2022/03/18 05:11:55;;;;;;;7.03;5.57;;;5.60;99.90;;;;;;5054981;28;20636;-79
2022/03/18 05:14:21;;;;;;;7.80;5.30;;;5.60;99.90;;;;;;5053871;28;20641;-79
2022/03/18 05:16:49;;;;;;;6.55;5.30;;;5.60;99.90;;;;;;5054914;28;20197;-80
2022/03/18 05:19:15;;;;;;;5.07;4.57;;;5.60;99.90;;;;;;5053798;28;20173;-80
2022/03/18 05:21:41;;;;;;;9.80;5.90;;;5.60;99.90;;;;;;5054586;28;20639;-80
2022/03/18 05:24:07;;;;;;;7.60;5.90;;;5.60;99.90;;;;;;5053458;28;20239;-80
2022/03/18 05:26:33;;;;;;;8.68;6.10;;;5.50;99.90;;;;;;5053774;28;20607;-80
2022/03/18 05:28:59;;;;;;;9.47;5.87;;;5.50;99.90;;;;;;5054946;28;20169;-80
2022/03/18 05:31:26;;;;;;;9.30;6.10;;;5.50;99.90;;;;;;5053304;28;21007;-80
2022/03/18 05:33:52;;;;;;;9.13;5.53;;;5.50;99.90;;;;;;5054946;28;20177;-79
2022/03/18 05:36:17;;;;;;;9.57;6.17;;;5.40;99.90;;;;;;5058760;28;20193;-80
2022/03/18 05:38:43;;;;;;;10.37;5.37;;;5.50;99.90;;;;;;5054645;28;20571;-80
2022/03/18 05:41:10;;;;;;;9.40;6.35;;;5.50;99.90;;;;;;5054266;28;20942;-79
2022/03/18 05:43:36;;;;;;;12.30;6.27;;;5.40;99.90;;;;;;5053301;28;20219;-80
2022/03/18 05:46:02;;;;;;;12.23;6.18;;;5.40;99.90;;;;;;5053098;28;20180;-79
2022/03/18 05:48:28;;;;;;;10.40;6.13;;;5.40;99.90;;;;;;5054677;28;20165;-80
2022/03/18 05:50:53;;;;;;;7.20;5.90;;;5.40;99.90;;;;;;5054090;28;20819;-79
2022/03/18 05:53:19;;;;;;;9.80;6.10;;;5.40;99.90;;;;;;5054313;28;20557;-79
2022/03/18 05:58:30;;;;;;;9.50;6.80;;;5.40;99.90;;;;;;5054276;28;20180;-79
2022/03/18 06:00:56;;;;;;;9.43;6.53;;;5.40;99.90;;;;;;5053909;28;20173;-79
2022/03/18 06:03:22;;;;;;;11.30;7.20;;;5.40;99.90;;;;;;5054165;28;20266;-78
2022/03/18 06:05:48;;;;;;;13.50;8.00;;;5.40;99.90;;;;;;5054014;28;20566;-79
2022/03/18 06:13:42;;;;;;;9.18;6.53;;;5.40;99.90;;;;;;5058406;28;20180;-78
2022/03/18 06:16:09;;;;;;;11.63;7.20;;;5.40;99.90;;;;;;5053343;28;20173;-79
2022/03/18 06:18:35;;;;;;;10.70;7.13;;;5.40;99.90;;;;;;5054185;28;20254;-79
2022/03/18 06:21:00;;;;;;;8.47;6.77;;;5.50;99.90;;;;;;5052689;28;20520;-78
2022/03/18 06:23:27;;;;;;;10.15;7.82;;;5.50;99.90;;;;;;5053794;28;20192;-78
2022/03/18 06:25:52;;;;;;;9.40;6.80;;;5.60;99.90;;;;;;5052286;28;20179;-78
2022/03/18 06:28:18;;;;;;;9.90;6.00;;;5.60;99.90;;;;;;5035887;28;20165;-78
2022/03/18 06:30:45;;;;;;;11.37;7.03;;;5.60;99.90;;;;;;5052063;28;20207;-78
2022/03/18 06:33:11;;;;;;;9.25;6.82;;;5.70;99.90;;;;;;5053441;28;20169;-78
2022/03/18 06:35:36;;;;;;;9.03;6.00;;;5.70;99.90;;;;;;5053313;28;20226;-78
2022/03/18 06:38:02;;;;;;;8.10;5.97;;;5.80;99.90;;;;;;5053458;28;20200;-78
2022/03/18 06:40:28;;;;;;;7.43;5.80;;;5.90;99.90;;;;;;5053069;28;20763;-78
2022/03/18 06:42:53;;;;;;;5.70;5.10;;;5.90;99.90;;;;;;5046206;28;20173;-78
2022/03/18 06:45:21;;;;;;;7.00;6.20;;;6.00;99.90;;;;;;5053368;28;20194;-78
2022/03/18 06:47:47;;;;;;;10.10;5.60;;;6.10;99.90;;;;;;5053199;28;20223;-78
2022/03/18 06:50:13;;;;;;;11.03;5.30;;;6.10;99.90;;;;;;5056680;28;20185;-78
2022/03/18 06:52:39;;;;;;;9.63;4.50;;;6.20;99.90;;;;;;5053802;28;20560;-78
2022/03/18 06:55:05;;;;;;;7.60;4.03;;;6.30;99.90;;;;;;5051963;28;20575;-78
2022/03/18 06:57:31;;;;;;;12.65;5.68;;;6.40;99.90;;;;;;5051743;28;20650;-79
2022/03/18 06:59:59;;;;;;;8.13;3.90;;;6.60;99.90;;;;;;5052936;28;20566;-78
2022/03/18 07:02:26;;;;;;;7.03;3.83;;;6.70;99.90;;;;;;5053003;28;20165;-78
2022/03/18 07:04:52;;;;;;;7.68;3.60;;;6.80;99.90;;;;;;5051551;28;20196;-79
2022/03/18 07:07:18;;;;;;;7.90;3.25;;;7.00;99.90;;;;;;5068276;28;20606;-79
2022/03/18 07:09:46;;;;;;;7.27;3.30;;;7.20;99.90;;;;;;5051295;28;20169;-79
2022/03/18 07:12:11;;;;;;;6.43;2.95;;;7.30;99.90;;;;;;5052873;28;20157;-79
2022/03/18 07:14:37;;;;;;;4.60;3.37;;;7.40;99.90;;;;;;5051785;28;20176;-79
2022/03/18 07:19:48;;;;;;;8.02;3.22;;;7.70;99.90;;;;;;5052419;28;20267;-79
2022/03/18 07:22:14;;;;;;;7.33;3.33;;;7.90;99.90;;;;;;5034609;28;20649;-79
2022/03/18 07:24:39;;;;;;;4.33;2.80;;;8.00;99.90;;;;;;5051491;28;20233;-79
2022/03/18 07:27:05;;;;;;;11.57;4.23;;;8.10;99.90;;;;;;5036386;28;20193;-79
2022/03/18 07:29:31;;;;;;;5.07;4.30;;;8.20;99.90;;;;;;5054088;28;20315;-80
2022/03/18 07:31:57;;;;;;;10.23;4.87;;;8.30;99.90;;;;;;5042660;28;20663;-80
2022/03/18 07:34:22;;;;;;;5.70;4.53;;;8.40;99.90;;;;;;5048620;28;20181;-80
2022/03/18 07:36:49;;;;;;;6.53;4.13;;;8.50;99.90;;;;;;5027196;28;20195;-79
2022/03/18 07:39:15;;;;;;;9.38;5.53;;;8.70;99.90;;;;;;5051338;28;20203;-79
2022/03/18 07:41:40;;;;;;;8.17;5.60;;;9.00;99.90;;;;;;5044831;28;20174;-80
2022/03/18 07:44:09;;;;;;;9.02;5.50;;;9.60;99.90;;;;;;5041336;28;20205;-80
2022/03/18 07:46:34;;;;;;;7.90;5.43;;;10.40;99.90;;;;;;5051502;28;20250;-79
2022/03/18 07:49:01;;;;;;;8.33;4.80;;;11.40;99.90;;;;;;5050788;28;20579;-79
2022/03/18 07:51:27;;;;;;;9.37;3.97;;;12.50;99.90;;;;;;5033967;28;20173;-80
2022/03/18 07:53:53;;;;;;;8.73;5.33;;;13.60;99.90;;;;;;5050907;28;20649;-80
2022/03/18 07:56:18;;;;;;;10.73;4.57;;;14.80;99.90;;;;;;5050511;28;20607;-79
2022/03/18 07:58:44;;;;;;;4.53;3.43;;;16.00;99.90;;;;;;5050668;28;20579;-78
2022/03/18 08:01:10;;;;;;;6.90;3.50;;;17.10;99.90;;;;;;5017329;28;20169;-78
2022/03/18 08:03:36;;;;;;;7.27;3.57;;;18.20;99.90;;;;;;5052240;28;20188;-78
2022/03/18 08:06:02;;;;;;;6.03;3.47;;;19.30;99.90;;;;;;5054426;28;20260;-78
2022/03/18 08:08:28;;;;;;;6.13;3.30;;;20.30;99.90;;;;;;5051855;28;20564;-78
2022/03/18 08:11:10;;;;;;;5.30;3.30;;;21.30;99.90;;;;;;5045892;28;20941;-78
2022/03/18 08:13:36;;;;;;;4.53;3.17;;;22.10;99.90;;;;;;5039992;28;20180;-77
2022/03/18 08:16:02;;;;;;;5.37;3.17;;;22.90;99.90;;;;;;5045217;28;20601;-78
2022/03/18 08:18:28;;;;;;;5.00;2.50;;;23.50;99.90;;;;;;5043986;28;20222;-79
2022/03/18 08:20:54;;;;;;;4.30;2.40;;;24.00;99.90;;;;;;5032549;28;20938;-78
2022/03/18 08:23:22;;;;;;;6.90;2.93;;;24.50;99.90;;;;;;5013876;28;20626;-76
2022/03/18 08:25:48;;;;;;;7.13;2.33;;;25.00;99.90;;;;;;5013843;28;20244;-80
2022/03/18 08:28:15;;;;;;;2.73;2.00;;;25.40;99.90;;;;;;5013575;28;20699;-79
2022/03/18 08:30:40;;;;;;;4.00;2.00;;;25.90;99.90;;;;;;5029986;28;20664;-79
2022/03/18 08:33:06;;;;;;;3.77;1.90;;;26.30;99.90;;;;;;4997525;28;20568;-79
2022/03/18 08:35:32;;;;;;;4.83;1.90;;;26.70;98.70;;;;;;5030346;28;20571;-77
2022/03/18 08:38:03;;;;;;;3.53;1.80;;;27.10;97.30;;;;;;5036860;28;20211;-78
2022/03/18 08:40:34;;;;;;;4.70;2.30;;;27.50;90.90;;;;;;5034124;28;20536;-77
2022/03/18 08:43:06;;;;;;;3.87;2.10;;;27.70;85.70;;;;;;5051467;28;20568;-77
2022/03/18 08:45:32;;;;;;;4.32;2.60;;;27.60;78.40;;;;;;5034709;28;20702;-79
2022/03/18 08:47:58;;;;;;;4.17;2.30;;;27.00;59.20;;;;;;5039933;28;20196;-77
2022/03/18 08:50:24;;;;;;;4.63;2.90;;;27.30;67.50;;;;;;5038871;28;21287;-78
2022/03/18 08:52:53;;;;;;;4.00;2.42;;;26.80;54.70;;;;;;5016906;28;20698;-79
2022/03/18 08:55:20;;;;;;;3.93;2.40;;;27.00;55.90;;;;;;5035268;28;20548;-79
2022/03/18 08:57:46;;;;;;;3.03;1.80;;;27.60;62.30;;;;;;5033150;28;21193;-80
2022/03/18 09:00:17;;;;;;;5.97;2.43;;;28.10;64.20;;;;;;5033515;28;20572;-79
2022/03/18 09:02:45;;;;;;;4.03;1.87;;;28.60;63.60;;;;;;5033884;28;20654;-78
2022/03/18 09:05:15;;;;;;;4.80;2.63;;;28.90;65.30;;;;;;5016138;28;20784;-78
2022/03/18 09:07:40;;;;;;;4.00;2.20;;;28.70;51.40;;;;;;5033675;28;20804;-78
2022/03/18 09:10:08;;;;;;;5.05;2.30;;;28.90;51.40;;;;;;5032469;28;20793;-78
2022/03/18 09:12:34;;;;;;;5.20;2.20;;;28.70;47.20;;;;;;5033079;28;20714;-77
2022/03/18 09:15:02;;;;;;;3.77;2.03;;;28.80;45.50;;;;;;5034007;28;20720;-78
2022/03/18 09:17:28;;;;;;;3.60;1.60;;;28.80;43.90;;;;;;5034061;28;20194;-79
2022/03/18 09:19:54;;;;;;;3.57;1.60;;;29.30;48.10;;;;;;5038548;28;20599;-78
2022/03/18 09:22:19;;;;;;;4.10;1.97;;;29.20;45.70;;;;;;5053124;28;20184;-78
2022/03/18 09:24:46;;;;;;;3.03;1.90;;;28.80;47.40;;;;;;5045646;28;20703;-77
2022/03/18 09:27:14;;;;;;;3.33;1.30;;;28.70;49.60;;;;;;5036679;28;20189;-79
2022/03/18 09:29:40;;;;;;;5.10;1.70;;;28.90;50.60;;;;;;5036561;28;20570;-78
2022/03/18 09:32:06;;;;;;;3.00;1.20;;;29.20;51.00;;;;;;5054509;28;20571;-78
2022/03/18 09:34:32;;;;;;;2.90;1.47;;;29.50;51.40;;;;;;5053886;28;20173;-79
2022/03/18 09:36:58;;;;;;;2.80;1.30;;;29.80;51.50;;;;;;5053348;28;20656;-79
2022/03/18 09:39:26;;;;;;;2.70;1.73;;;30.20;51.70;;;;;;5054558;28;20166;-79
2022/03/18 09:41:54;;;;;;;2.20;1.13;;;30.50;51.90;;;;;;5035827;28;20596;-79
2022/03/18 09:44:20;;;;;;;3.07;1.40;;;30.90;50.70;;;;;;5036532;28;20980;-78
2022/03/18 09:46:49;;;;;;;3.00;1.40;;;31.20;50.10;;;;;;5000100;28;20717;-77
2022/03/18 09:49:17;;;;;;;1.77;1.20;;;31.40;48.90;;;;;;5016382;28;20575;-78
2022/03/18 09:51:43;;;;;;;2.20;1.60;;;31.50;49.10;;;;;;5013178;28;20961;-75
2022/03/18 09:54:24;;;;;;;3.33;1.23;;;31.60;48.90;;;;;;5020843;28;20586;-76
2022/03/18 09:56:50;;;;;;;2.73;1.67;;;31.70;48.40;;;;;;5058486;28;20618;-78
2022/03/18 09:59:16;;;;;;;3.73;1.80;;;31.70;47.50;;;;;;5036453;28;20564;-86
2022/03/18 10:01:43;;;;;;;2.60;1.37;;;31.70;46.50;;;;;;5053712;28;20669;-78
2022/03/18 10:04:11;;;;;;;4.60;2.13;;;31.80;47.10;;;;;;5052702;28;20708;-78
2022/03/18 10:06:42;;;;;;;3.60;1.40;;;31.90;46.60;;;;;;5054033;28;20190;-77
2022/03/18 10:09:09;;;;;;;3.53;1.53;;;32.10;46.70;;;;;;5052608;28;20608;-77
2022/03/18 10:11:37;;;;;;;3.72;2.10;;;32.20;46.10;;;;;;5052123;28;20709;-77
2022/03/18 10:14:07;;;;;;;3.67;1.50;;;31.90;40.00;;;;;;5030136;28;20220;-78
2022/03/18 10:16:39;;;;;;;3.07;1.60;;;32.00;42.40;;;;;;5052096;28;20606;-77
2022/03/18 10:19:11;;;;;;;3.03;1.30;;;32.00;42.90;;;;;;5052703;28;20578;-77
2022/03/18 10:21:57;;;;;;;2.17;1.17;;;31.90;42.40;;;;;;5052143;28;20584;-78
2022/03/18 10:24:30;;;;;;;2.45;1.40;;;31.80;42.60;;;;;;5051001;28;20812;-79
2022/03/18 10:27:13;;;;;;;2.70;1.50;;;30.80;36.80;;;;;;5035988;28;20267;-77
2022/03/18 10:29:44;;;;;;;3.03;1.40;;;31.00;40.30;;;;;;5053415;28;20569;-77
2022/03/18 10:32:11;;;;;;;4.60;1.10;;;31.00;40.30;;;;;;5053496;28;20575;-76
2022/03/18 10:37:25;;;;;;;2.90;1.10;;;30.80;40.40;;;;;;5052850;28;20801;-75
2022/03/18 10:39:59;;;;;;;4.13;0.97;;;29.80;35.20;;;;;;5052092;28;20611;-77
2022/03/18 10:42:26;;;;;;;2.73;1.10;;;29.70;38.90;;;;;;5053270;28;20567;-77
2022/03/18 10:45:00;;;;;;;2.83;1.53;;;29.60;39.30;;;;;;5052252;28;20620;-79
2022/03/18 10:47:38;;;;;;;3.17;1.13;;;29.50;39.90;;;;;;5053702;28;20622;-77
2022/03/18 10:50:21;;;;;;;1.93;0.87;;;29.40;40.00;;;;;;5051993;28;20952;-78
2022/03/18 10:52:47;;;;;;;2.40;1.20;;;29.40;40.30;;;;;;5035053;28;20748;-77
2022/03/18 10:55:18;;;;;;;1.57;0.90;;;29.30;38.90;;;;;;5053318;28;20193;-77
2022/03/18 10:57:59;;;;;;;3.13;0.73;;;29.20;39.00;;;;;;5051388;28;20197;-78
2022/03/18 11:00:28;;;;;;;3.97;0.90;;;29.00;39.00;;;;;;5047125;28;21019;-77
2022/03/18 11:02:58;;;;;;;1.60;1.00;;;28.90;38.80;;;;;;5029280;28;20596;-77
2022/03/18 11:05:26;;;;;;;1.60;0.70;;;28.70;39.60;;;;;;5048984;28;21212;-77
2022/03/18 11:07:54;;;;;;;1.67;0.50;;;28.50;38.40;;;;;;5052566;28;20661;-78
2022/03/18 11:13:06;;;;;;;1.10;0.50;;;28.20;37.40;;;;;;5043800;28;20575;-77
2022/03/18 11:15:34;;;;;;;1.10;0.50;;;28.10;37.30;;;;;;5019288;28;21198;-77
2022/03/18 11:18:03;;;;;;;1.37;0.40;;;28.00;37.20;;;;;;5041388;28;20983;-77
2022/03/18 11:20:32;;;;;;;1.30;0.50;;;27.90;36.70;;;;;;5031561;28;20595;-77
2022/03/18 11:22:59;;;;;;;1.50;0.43;;;27.80;34.70;;;;;;5045465;28;21016;-77
2022/03/18 11:25:26;;;;;;;1.47;0.60;;;27.80;35.30;;;;;;5051824;28;20607;-76
2022/03/18 11:27:54;;;;;;;1.80;0.57;;;27.60;34.90;;;;;;5050496;28;20615;-77
2022/03/18 11:30:47;;;;;;;1.40;0.60;;;27.40;34.80;;;;;;5050117;28;21344;-78
2022/03/18 11:33:17;;;;;;;2.57;0.70;;;27.20;33.40;;;;;;5050053;28;20959;-77
2022/03/18 11:35:49;;;;;;;1.40;0.70;;;27.00;33.40;;;;;;5023866;28;20600;-78
2022/03/18 11:38:19;;;;;;;1.30;0.50;;;26.90;34.20;;;;;;5031222;28;20707;-78
2022/03/18 11:40:59;;;;;;;1.40;0.40;;;26.90;34.60;;;;;;5013772;28;20569;-78
2022/03/18 11:43:42;;;;;;;1.20;0.50;;;26.80;34.50;;;;;;5036689;28;20698;-78
2022/03/18 11:46:15;;;;;;;1.20;0.40;;;26.70;33.60;;;;;;5059129;28;20638;-76
2022/03/18 11:48:49;;;;;;;1.97;0.50;;;26.60;34.40;;;;;;5062827;28;21882;-76
2022/03/18 11:51:30;;;;;;;2.50;0.50;;;26.40;31.80;;;;;;5055874;28;20663;-77
2022/03/18 11:54:00;;;;;;;1.40;0.50;;;26.20;32.40;;;;;;5036446;28;20613;-77
2022/03/18 11:56:52;;;;;;;2.37;0.70;;;26.10;33.80;;;;;;5034772;28;21139;-77
2022/03/18 11:59:31;;;;;;;1.40;0.50;;;25.90;28.80;;;;;;5061140;28;20592;-78
2022/03/18 12:02:09;;;;;;;1.43;0.50;;;25.70;31.60;;;;;;5033250;28;21237;-77
2022/03/18 12:04:41;;;;;;;1.47;0.50;;;25.60;33.40;;;;;;5051354;28;20965;-76
2022/03/18 12:07:13;;;;;;;1.27;0.40;;;25.70;34.50;;;;;;5051130;28;20596;-75
2022/03/18 12:09:59;;;;;;;1.40;0.50;;;25.50;34.10;;;;;;5046725;28;20937;-76
2022/03/18 12:12:39;;;;;;;1.30;0.50;;;25.50;34.10;;;;;;5031105;28;21154;-76
2022/03/18 12:15:08;;;;;;;1.10;0.43;;;25.60;34.30;;;;;;5030466;28;20668;-77
2022/03/18 12:17:43;;;;;;;2.10;0.50;;;25.70;35.50;;;;;;5031169;28;20608;-77
2022/03/18 12:20:13;;;;;;;1.47;0.50;;;25.50;33.50;;;;;;5029698;28;20580;-77
2022/03/18 12:22:42;;;;;;;1.40;0.63;;;25.50;34.60;;;;;;5031288;28;20573;-77
2022/03/18 12:25:08;;;;;;;2.07;0.60;;;25.20;30.50;;;;;;5037323;28;20674;-76
2022/03/18 12:27:39;;;;;;;1.53;0.60;;;24.90;33.20;;;;;;5051481;28;20610;-78
2022/03/18 12:30:23;;;;;;;1.60;0.60;;;24.80;33.70;;;;;;5050446;28;20568;-77
2022/03/18 12:32:51;;;;;;;1.10;0.40;;;24.70;33.70;;;;;;5051135;28;20621;-77
2022/03/18 12:35:18;;;;;;;1.07;0.40;;;24.50;34.20;;;;;;5054209;28;20555;-77
2022/03/18 12:37:45;;;;;;;2.67;0.60;;;24.40;33.80;;;;;;5052696;28;20945;-78
2022/03/18 12:40:16;;;;;;;3.50;0.70;;;24.20;33.80;;;;;;5053480;28;20994;-77
2022/03/18 12:42:57;;;;;;;1.30;0.50;;;24.10;34.30;;;;;;5051409;28;20575;-77
2022/03/18 12:45:27;;;;;;;1.13;0.53;;;23.80;33.40;;;;;;5050608;28;20607;-76
2022/03/18 12:47:54;;;;;;;1.70;0.80;;;23.70;34.50;;;;;;5050208;28;20612;-78
2022/03/18 12:50:25;;;;;;;2.20;0.57;;;23.70;34.20;;;;;;5053936;28;20602;-77
2022/03/18 12:52:50;;;;;;;1.20;0.50;;;23.60;34.40;;;;;;5051328;28;20902;-78
2022/03/18 12:55:18;;;;;;;1.37;0.60;;;23.50;35.00;;;;;;5050314;28;21385;-77
2022/03/18 12:57:51;;;;;;;1.70;0.60;;;23.40;35.10;;;;;;5042825;28;20631;-78
2022/03/18 13:00:17;;;;;;;1.20;0.50;;;23.30;35.30;;;;;;5038928;28;20670;-76
2022/03/18 13:02:44;;;;;;;1.60;0.70;;;23.20;34.60;;;;;;5050555;28;20577;-78
2022/03/18 13:05:15;;;;;;;3.00;0.60;;;23.00;35.20;;;;;;5042060;28;20640;-77
2022/03/18 13:07:41;;;;;;;1.20;0.60;;;22.80;34.20;;;;;;5065065;28;20668;-77
2022/03/18 13:10:07;;;;;;;3.00;0.50;;;22.60;34.40;;;;;;5049058;28;20560;-77
2022/03/18 13:12:35;;;;;;;1.20;0.50;;;22.40;34.70;;;;;;5050532;28;20571;-77
2022/03/18 13:15:18;;;;;;;1.90;0.53;;;22.30;35.10;;;;;;5050648;28;20618;-77
2022/03/18 13:17:46;;;;;;;2.70;0.50;;;22.20;34.80;;;;;;5049261;28;20596;-78